createdAt,value
2023-04-16T00:01:07.508Z,20.52
2023-04-16T00:03:41.775Z,17.77
2023-04-16T00:06:14.975Z,18.45
2023-04-16T00:08:47.767Z,20.58
2023-04-16T00:11:20.662Z,19.90
2023-04-16T00:13:53.500Z,19.23
2023-04-16T00:16:26.432Z,22.52
2023-04-16T00:19:00.917Z,19.13
2023-04-16T00:21:34.154Z,20.90
2023-04-16T00:24:13.910Z,23.75
2023-04-16T00:26:50.780Z,23.20
2023-04-16T00:29:23.610Z,20.47
2023-04-16T00:31:56.375Z,18.13
2023-04-16T00:34:31.390Z,18.55
2023-04-16T00:37:04.347Z,14.27
2023-04-16T00:39:37.235Z,23.48
2023-04-16T00:42:09.994Z,15.60
2023-04-16T00:44:43.404Z,20.23
2023-04-16T00:47:17.165Z,17.73
2023-04-16T00:49:55.745Z,17.95
2023-04-16T00:52:33.727Z,19.38
2023-04-16T00:55:08.431Z,16.92
2023-04-16T01:04:30.685Z,21.33
2023-04-16T01:07:05.742Z,22.63
2023-04-16T01:09:38.544Z,24.13
2023-04-16T01:12:11.797Z,19.42
2023-04-16T01:14:44.749Z,22.98
2023-04-16T01:17:17.503Z,20.27
2023-04-16T01:19:50.282Z,17.60
2023-04-16T01:22:24.411Z,22.75
2023-04-16T01:24:57.204Z,23.23
2023-04-16T01:27:30.027Z,23.02
2023-04-16T01:30:02.784Z,22.42
2023-04-16T01:32:49.063Z,19.00
2023-04-16T01:35:21.874Z,19.85
2023-04-16T01:37:56.292Z,24.88
2023-04-16T01:40:29.823Z,23.40
2023-04-16T01:43:03.035Z,23.48
2023-04-16T01:45:36.445Z,26.75
2023-04-16T01:48:09.965Z,26.35
2023-04-16T01:50:42.782Z,23.70
2023-04-16T01:53:17.278Z,24.63
2023-04-16T01:55:50.046Z,25.42
2023-04-16T01:58:22.819Z,28.00
2023-04-16T02:00:55.998Z,24.60
2023-04-16T02:03:29.780Z,23.60
2023-04-16T02:06:02.735Z,26.63
2023-04-16T02:08:37.065Z,28.58
2023-04-16T02:11:09.953Z,26.92
2023-04-16T02:13:42.839Z,27.15
2023-04-16T02:16:16.046Z,29.73
2023-04-16T02:18:53.867Z,26.70
2023-04-16T02:21:28.924Z,32.60
2023-04-16T02:24:03.579Z,30.80
2023-04-16T02:26:37.190Z,28.83
2023-04-16T02:29:16.656Z,30.27
2023-04-16T02:31:55.056Z,29.85
2023-04-16T02:34:28.215Z,28.90
2023-04-16T02:37:01.024Z,27.90
2023-04-16T02:39:35.173Z,32.63
2023-04-16T02:42:08.164Z,28.20
2023-04-16T02:44:41.599Z,28.90
2023-04-16T02:47:17.436Z,32.28
2023-04-16T02:49:53.188Z,32.67
2023-04-16T02:52:32.645Z,36.13
2023-04-16T02:55:32.806Z,30.42
2023-04-16T02:58:15.271Z,32.90
2023-04-16T03:01:42.559Z,39.95
2023-04-16T03:07:58.891Z,33.85
2023-04-16T03:10:33.230Z,32.35
2023-04-16T03:13:06.450Z,44.28
2023-04-16T03:15:39.217Z,39.47
2023-04-16T03:18:12.097Z,39.78
2023-04-16T03:20:45.329Z,32.38
2023-04-16T03:23:18.428Z,40.72
2023-04-16T03:25:52.703Z,40.42
2023-04-16T03:28:25.851Z,43.60
2023-04-16T03:30:58.776Z,39.80
2023-04-16T03:33:31.614Z,39.67
2023-04-16T03:37:21.337Z,41.60
2023-04-16T03:40:35.195Z,42.30
2023-04-16T03:43:56.173Z,45.40
2023-04-16T03:50:12.920Z,41.45
2023-04-16T03:53:32.250Z,43.35
2023-04-16T03:56:21.438Z,45.15
2023-04-16T03:58:58.548Z,36.75
2023-04-16T04:01:36.508Z,44.95
2023-04-16T04:04:11.556Z,46.33
2023-04-16T04:06:48.668Z,39.13
2023-04-16T04:09:21.708Z,39.13
2023-04-16T04:11:54.926Z,44.75
2023-04-16T04:14:29.275Z,36.50
2023-04-16T04:22:39.353Z,44.28
2023-04-16T04:25:20.595Z,43.50
2023-04-16T04:27:53.571Z,47.08
2023-04-16T04:30:27.779Z,37.15
2023-04-16T04:33:03.791Z,41.45
2023-04-16T04:35:42.539Z,46.97
2023-04-16T04:44:02.357Z,41.20
2023-04-16T04:46:36.896Z,44.40
2023-04-16T04:49:10.406Z,37.58
2023-04-16T04:51:43.659Z,39.15
2023-04-16T04:54:16.555Z,40.63
2023-04-16T04:56:50.128Z,43.83
2023-04-16T04:59:23.967Z,42.53
2023-04-16T05:01:58.292Z,36.17
2023-04-16T05:04:31.160Z,46.72
2023-04-16T05:07:03.918Z,33.78
2023-04-16T05:09:36.737Z,41.33
2023-04-16T05:12:09.651Z,46.28
2023-04-16T05:14:42.952Z,41.50
2023-04-16T05:17:17.223Z,41.50
2023-04-16T05:19:50.073Z,35.65
2023-04-16T05:22:22.798Z,38.63
2023-04-16T05:24:55.967Z,40.53
2023-04-16T05:27:28.991Z,40.60
2023-04-16T05:30:01.800Z,36.47
2023-04-16T05:32:36.186Z,42.90
2023-04-16T05:35:10.190Z,49.40
2023-04-16T05:37:43.382Z,42.10
2023-04-16T05:40:16.265Z,37.53
2023-04-16T05:42:49.318Z,41.17
2023-04-16T05:45:22.259Z,47.70
2023-04-16T05:47:56.500Z,42.55
2023-04-16T05:50:29.389Z,39.67
2023-04-16T05:53:02.796Z,44.72
2023-04-16T05:55:36.732Z,40.55
2023-04-16T05:58:09.516Z,41.47
2023-04-16T06:00:42.329Z,35.00
2023-04-16T06:03:16.514Z,38.70
2023-04-16T06:05:49.404Z,37.80
2023-04-16T06:08:22.216Z,39.05
2023-04-16T06:10:55.027Z,36.35
2023-04-16T06:13:27.800Z,41.30
2023-04-16T06:16:00.590Z,37.53
2023-04-16T06:18:34.870Z,36.72
2023-04-16T06:21:07.875Z,40.25
2023-04-16T06:23:40.913Z,39.03
2023-04-16T06:26:13.830Z,31.55
2023-04-16T06:28:46.620Z,38.28
2023-04-16T06:31:19.483Z,34.80
2023-04-16T06:33:53.686Z,31.60
2023-04-16T06:36:27.471Z,36.10
2023-04-16T06:39:00.330Z,35.53
2023-04-16T06:41:33.146Z,36.88
2023-04-16T06:44:06.190Z,34.58
2023-04-16T06:46:39.322Z,35.70
2023-04-16T06:49:13.496Z,35.80
2023-04-16T06:51:46.427Z,35.57
2023-04-16T06:54:19.690Z,34.25
2023-04-16T06:56:53.753Z,32.08
2023-04-16T06:59:26.904Z,33.45
2023-04-16T07:01:59.758Z,33.33
2023-04-16T07:04:34.064Z,35.38
2023-04-16T07:07:07.084Z,31.40
2023-04-16T07:09:40.380Z,33.15
2023-04-16T07:12:13.315Z,34.40
2023-04-16T07:14:46.293Z,32.22
2023-04-16T07:17:19.408Z,37.17
2023-04-16T07:19:53.902Z,37.83
2023-04-16T07:22:26.705Z,37.83
2023-04-16T07:24:59.578Z,33.45
2023-04-16T07:27:32.388Z,34.90
2023-04-16T07:30:06.202Z,31.88
2023-04-16T07:32:39.178Z,28.80
2023-04-16T07:35:13.477Z,34.25
2023-04-16T07:37:46.340Z,32.53
2023-04-16T07:40:19.255Z,30.50
2023-04-16T07:42:52.284Z,33.55
2023-04-16T07:45:25.409Z,37.70
2023-04-16T07:47:58.352Z,30.80
2023-04-16T07:50:32.543Z,30.83
2023-04-16T07:53:07.696Z,38.75
2023-04-16T07:55:40.895Z,33.65
2023-04-16T07:58:14.995Z,30.88
2023-04-16T08:00:49.766Z,24.95
2023-04-16T08:03:24.187Z,30.63
2023-04-16T08:05:58.991Z,31.27
2023-04-16T08:08:32.048Z,26.30
2023-04-16T08:11:05.247Z,30.02
2023-04-16T08:13:38.104Z,28.02
2023-04-16T08:16:11.020Z,27.98
2023-04-16T08:18:43.830Z,30.45
2023-04-16T08:21:18.138Z,31.05
2023-04-16T08:23:52.308Z,30.70
2023-04-16T08:26:25.422Z,25.50
2023-04-16T08:28:59.004Z,30.33
2023-04-16T08:31:32.036Z,27.08
2023-04-16T08:34:04.969Z,27.05
2023-04-16T08:36:39.188Z,27.88
2023-04-16T08:39:12.319Z,26.70
2023-04-16T08:41:47.332Z,27.10
2023-04-16T08:46:57.969Z,27.75
2023-04-16T08:49:32.886Z,31.58
2023-04-16T08:54:47.370Z,31.05
2023-04-16T08:57:39.650Z,30.83
2023-04-16T09:00:14.455Z,25.88
2023-04-16T09:05:21.609Z,28.98
2023-04-16T09:07:55.775Z,28.30
2023-04-16T09:10:28.870Z,29.25
2023-04-16T09:13:02.036Z,27.10
2023-04-16T09:15:36.292Z,26.73
2023-04-16T09:18:09.071Z,30.13
2023-04-16T09:20:42.054Z,26.30
2023-04-16T09:23:16.161Z,25.80
2023-04-16T09:25:49.089Z,25.85
2023-04-16T09:28:41.698Z,25.08
2023-04-16T09:31:16.153Z,27.75
2023-04-16T09:34:03.199Z,25.58
2023-04-16T09:36:37.486Z,23.80
2023-04-16T09:39:20.582Z,23.75
2023-04-16T09:41:54.716Z,26.67
2023-04-16T09:44:36.104Z,23.38
2023-04-16T09:47:10.444Z,24.05
2023-04-16T09:49:43.824Z,24.00
2023-04-16T09:52:19.308Z,23.45
2023-04-16T09:54:54.714Z,20.48
2023-04-16T09:57:27.700Z,26.60
2023-04-16T10:00:04.730Z,22.08
2023-04-16T10:02:42.437Z,20.02
2023-04-16T10:05:18.695Z,20.95
2023-04-16T10:07:52.627Z,23.48
2023-04-16T10:10:27.339Z,21.37
2023-04-16T10:13:00.556Z,21.48
2023-04-16T10:15:33.867Z,22.25
2023-04-16T10:18:07.721Z,22.75
2023-04-16T10:20:41.480Z,19.47
2023-04-16T10:23:14.612Z,19.70
2023-04-16T10:25:49.786Z,21.52
2023-04-16T10:28:23.158Z,18.85
2023-04-16T10:30:59.611Z,17.80
2023-04-16T10:33:34.740Z,20.67
2023-04-16T10:36:12.270Z,20.80
2023-04-16T10:38:48.445Z,21.45
2023-04-16T10:41:22.731Z,22.58
2023-04-16T10:44:09.557Z,23.15
2023-04-16T10:46:43.965Z,20.92
2023-04-16T10:49:19.149Z,19.08
2023-04-16T10:51:56.760Z,19.75
2023-04-16T10:54:30.754Z,19.85
2023-04-16T10:57:07.341Z,17.52
2023-04-16T10:59:44.014Z,18.05
2023-04-16T11:02:18.851Z,20.75
2023-04-16T11:04:51.972Z,18.27
2023-04-16T11:07:34.572Z,16.48
2023-04-16T11:10:08.348Z,19.45
2023-04-16T11:12:44.725Z,16.83
2023-04-16T11:15:19.161Z,15.85
2023-04-16T11:17:52.904Z,17.58
2023-04-16T11:20:27.626Z,18.47
2023-04-16T11:25:34.014Z,14.90
2023-04-16T11:28:08.436Z,15.35
2023-04-16T11:30:41.609Z,17.27
2023-04-16T11:33:14.553Z,13.10
2023-04-16T11:35:58.121Z,16.63
2023-04-16T11:38:36.075Z,13.18
2023-04-16T11:41:08.901Z,13.50
2023-04-16T11:43:43.073Z,13.50
2023-04-16T11:46:26.893Z,11.90
2023-04-16T11:49:00.434Z,13.55
2023-04-16T11:51:33.252Z,13.95
2023-04-16T11:54:06.447Z,16.25
2023-04-16T11:56:39.480Z,13.80
2023-04-16T11:59:15.140Z,13.05
2023-04-16T12:01:49.525Z,12.98
2023-04-16T12:04:24.779Z,12.65
2023-04-16T12:07:11.731Z,14.38
2023-04-16T12:09:45.037Z,12.73
2023-04-16T12:12:28.519Z,13.65
2023-04-16T12:15:04.176Z,12.55
2023-04-16T12:17:39.749Z,14.13
2023-04-16T12:20:14.907Z,13.05
2023-04-16T12:22:50.696Z,11.93
2023-04-16T12:25:25.728Z,12.68
2023-04-16T12:27:58.538Z,14.05
2023-04-16T12:30:32.734Z,12.38
2023-04-16T12:33:15.806Z,13.10
2023-04-16T12:35:48.750Z,14.27
2023-04-16T12:38:24.481Z,12.65
2023-04-16T12:40:58.251Z,13.85
2023-04-16T12:43:33.325Z,13.07
2023-04-16T12:46:07.560Z,15.70
2023-04-16T12:48:41.476Z,14.27
2023-04-16T12:51:14.289Z,13.55
2023-04-16T12:53:47.079Z,14.20
2023-04-16T12:56:20.274Z,16.70
2023-04-16T12:58:53.084Z,14.40
2023-04-16T13:01:27.580Z,14.27
2023-04-16T13:04:00.767Z,17.92
2023-04-16T13:06:33.840Z,15.80
2023-04-16T13:09:06.756Z,13.60
2023-04-16T13:11:39.678Z,13.23
2023-04-16T13:14:12.492Z,12.75
2023-04-16T13:16:49.116Z,12.63
2023-04-16T13:19:22.217Z,14.57
2023-04-16T13:21:55.139Z,12.88
2023-04-16T13:24:28.425Z,12.98
2023-04-16T13:27:01.392Z,13.40
2023-04-16T13:29:36.644Z,12.50
2023-04-16T13:32:13.555Z,13.27
2023-04-16T13:34:47.043Z,12.25
2023-04-16T13:37:19.882Z,11.30
2023-04-16T13:39:53.307Z,13.35
2023-04-16T13:42:26.200Z,12.27
2023-04-16T13:44:59.003Z,13.88
2023-04-16T13:47:33.244Z,11.15
2023-04-16T13:50:06.819Z,10.82
2023-04-16T13:52:39.651Z,12.75
2023-04-16T13:55:13.911Z,12.18
2023-04-16T13:57:48.058Z,13.57
2023-04-16T14:00:21.240Z,12.90
2023-04-16T14:02:58.407Z,14.50
2023-04-16T14:05:31.623Z,12.00
2023-04-16T14:08:04.445Z,12.38
2023-04-16T14:10:37.252Z,11.77
2023-04-16T14:13:10.331Z,12.63
2023-04-16T14:15:43.366Z,11.35
2023-04-16T14:18:17.652Z,11.73
2023-04-16T14:20:50.644Z,13.02
2023-04-16T14:23:23.488Z,12.90
2023-04-16T14:25:56.761Z,13.10
2023-04-16T14:28:29.643Z,11.75
2023-04-16T14:31:02.750Z,14.75
2023-04-16T14:33:37.128Z,12.80
2023-04-16T14:36:10.516Z,13.00
2023-04-16T14:38:43.793Z,12.25
2023-04-16T14:41:16.861Z,11.18
2023-04-16T14:43:49.733Z,13.18
2023-04-16T14:46:22.687Z,11.98
2023-04-16T14:48:56.983Z,12.88
2023-04-16T14:51:29.876Z,13.23
2023-04-16T14:54:02.751Z,13.05
2023-04-16T14:56:35.678Z,10.68
2023-04-16T14:59:08.696Z,12.27
2023-04-16T15:01:42.086Z,10.55
2023-04-16T15:04:16.815Z,11.55
2023-04-16T15:06:49.979Z,14.63
2023-04-16T15:09:22.790Z,13.35
2023-04-16T15:11:56.799Z,10.93
2023-04-16T15:14:29.604Z,10.43
2023-04-16T15:17:02.409Z,14.35
2023-04-16T15:19:36.635Z,10.82
2023-04-16T15:22:09.660Z,10.05
2023-04-16T15:24:42.492Z,10.50
2023-04-16T15:27:15.577Z,12.13
2023-04-16T15:29:49.690Z,11.05
2023-04-16T15:32:22.803Z,10.95
2023-04-16T15:35:00.452Z,10.68
2023-04-16T15:40:07.843Z,10.45
2023-04-16T15:42:40.673Z,10.48
2023-04-16T15:45:13.572Z,10.65
2023-04-16T15:47:50.892Z,11.27
2023-04-16T15:50:26.658Z,11.38
2023-04-16T15:52:59.568Z,12.80
2023-04-16T15:55:32.694Z,9.85
2023-04-16T15:58:05.715Z,9.45
2023-04-16T16:00:38.575Z,10.13
2023-04-16T16:03:11.981Z,10.23
2023-04-16T16:05:47.268Z,9.32
2023-04-16T16:08:20.340Z,10.10
2023-04-16T16:10:53.170Z,8.55
2023-04-16T16:13:26.112Z,10.32
2023-04-16T16:15:59.094Z,10.20
2023-04-16T16:18:32.155Z,9.23
2023-04-16T16:21:06.394Z,9.25
2023-04-16T16:23:39.179Z,10.95
2023-04-16T16:26:12.266Z,10.45
2023-04-16T16:28:45.851Z,9.75
2023-04-16T16:31:18.685Z,9.43
2023-04-16T16:33:51.494Z,9.30
2023-04-16T16:36:26.075Z,12.95
2023-04-16T16:41:32.257Z,11.23
2023-04-16T16:44:05.468Z,10.63
2023-04-16T16:46:38.358Z,10.23
2023-04-16T16:49:11.553Z,9.70
2023-04-16T16:51:49.610Z,9.88
2023-04-16T16:54:22.375Z,10.43
2023-04-16T16:56:55.216Z,9.90
2023-04-16T16:59:28.224Z,10.32
2023-04-16T17:02:01.355Z,10.02
2023-04-16T17:04:34.262Z,9.85
2023-04-16T17:07:08.838Z,9.68
2023-04-16T17:12:14.804Z,10.13
2023-04-16T17:14:50.858Z,12.02
2023-04-16T17:17:24.057Z,10.23
2023-04-16T17:19:57.527Z,16.38
2023-04-16T17:22:31.806Z,16.15
2023-04-16T17:25:05.213Z,19.65
2023-04-16T17:27:38.119Z,19.30
2023-04-16T17:30:11.875Z,20.15
2023-04-16T17:32:45.097Z,22.77
2023-04-16T17:35:18.310Z,17.48
2023-04-16T17:37:52.928Z,22.80
2023-04-16T17:42:58.935Z,20.15
2023-04-16T17:45:32.007Z,22.38
2023-04-16T17:48:05.555Z,19.85
2023-04-16T17:50:39.604Z,17.95
2023-04-16T17:53:14.283Z,16.08
2023-04-16T17:55:51.955Z,19.77
2023-04-16T17:58:26.294Z,20.30
2023-04-16T18:00:59.195Z,19.73
2023-04-16T18:03:32.893Z,18.20
2023-04-16T18:06:06.583Z,22.08
2023-04-16T18:08:41.057Z,19.73
2023-04-16T18:11:13.997Z,18.73
2023-04-16T18:13:46.897Z,17.08
2023-04-16T18:16:19.853Z,17.33
2023-04-16T18:18:52.843Z,17.65
2023-04-16T18:21:25.891Z,16.00
2023-04-16T18:24:03.029Z,16.10
2023-04-16T18:26:36.340Z,15.45
2023-04-16T18:29:09.422Z,16.50
2023-04-16T18:31:42.928Z,16.13
2023-04-16T18:34:15.963Z,14.13
2023-04-16T18:36:48.922Z,17.05
2023-04-16T18:39:23.235Z,15.73
2023-04-16T18:41:56.101Z,17.67
2023-04-16T18:44:28.963Z,16.38
2023-04-16T18:47:01.837Z,15.98
2023-04-16T18:49:34.970Z,16.13
2023-04-16T18:52:08.660Z,14.45
2023-04-16T18:54:43.510Z,16.55
2023-04-16T18:57:16.554Z,15.90
2023-04-16T18:59:49.390Z,15.60
2023-04-16T19:02:22.555Z,14.38
2023-04-16T19:04:55.716Z,16.90
2023-04-16T19:07:28.738Z,16.27
2023-04-16T19:10:03.664Z,18.25
2023-04-16T19:12:36.521Z,12.57
2023-04-16T19:15:09.909Z,14.35
2023-04-16T19:17:43.159Z,16.67
2023-04-16T19:20:16.440Z,15.07
2023-04-16T19:22:49.250Z,15.50
2023-04-16T19:25:23.458Z,15.63
2023-04-16T19:27:56.612Z,11.38
2023-04-16T19:30:29.791Z,12.88
2023-04-16T19:33:02.931Z,13.65
2023-04-16T19:35:35.943Z,14.15
2023-04-16T19:38:10.285Z,14.20
2023-04-16T19:40:46.633Z,13.23
2023-04-16T19:43:19.760Z,14.48
2023-04-16T19:45:53.304Z,16.98
2023-04-16T19:48:26.370Z,15.02
2023-04-16T19:51:02.668Z,15.07
2023-04-16T19:53:35.837Z,15.85
2023-04-16T19:56:10.043Z,16.60
2023-04-16T19:58:42.889Z,15.40
2023-04-16T20:01:15.793Z,15.13
2023-04-16T20:03:48.677Z,18.48
2023-04-16T20:06:21.866Z,16.92
2023-04-16T20:08:56.558Z,15.23
2023-04-16T20:11:30.816Z,18.00
2023-04-16T20:14:03.842Z,17.05
2023-04-16T20:16:38.445Z,20.70
2023-04-16T20:19:17.052Z,14.90
2023-04-16T20:21:50.012Z,13.45
2023-04-16T20:24:23.788Z,19.27
2023-04-16T20:26:58.094Z,17.33
2023-04-16T20:29:31.154Z,18.80
2023-04-16T20:32:04.535Z,17.55
2023-04-16T20:34:37.941Z,21.65
2023-04-16T20:37:10.760Z,19.70
2023-04-16T20:39:45.055Z,17.38
2023-04-16T20:44:56.510Z,18.55
2023-04-16T20:50:02.780Z,17.45
2023-04-16T20:52:36.420Z,19.52
2023-04-16T20:55:10.114Z,21.25
2023-04-16T20:57:44.306Z,18.75
2023-04-16T21:00:17.777Z,20.23
2023-04-16T21:02:50.868Z,19.00
2023-04-16T21:05:26.439Z,20.25
2023-04-16T21:07:59.506Z,21.33
2023-04-16T21:10:32.419Z,18.50
2023-04-16T21:13:06.866Z,22.08
2023-04-16T21:15:40.425Z,20.23
2023-04-16T21:18:13.950Z,22.50
2023-04-16T21:20:46.958Z,19.60
2023-04-16T21:23:19.814Z,21.80
2023-04-16T21:25:52.668Z,21.55
2023-04-16T21:28:26.866Z,20.63
2023-04-16T21:30:59.767Z,23.17
2023-04-16T21:33:32.731Z,18.27
2023-04-16T21:36:05.795Z,20.42
2023-04-16T21:38:38.755Z,25.33
2023-04-16T21:41:11.664Z,20.20
2023-04-16T21:43:45.965Z,19.80
2023-04-16T21:46:18.874Z,25.15
2023-04-16T21:48:51.671Z,22.02
2023-04-16T21:51:29.072Z,24.88
2023-04-16T21:54:02.134Z,17.15
2023-04-16T21:56:34.918Z,18.20
2023-04-16T21:59:09.688Z,22.50
2023-04-16T22:01:42.757Z,20.55
2023-04-16T22:04:15.723Z,26.48
2023-04-16T22:06:48.590Z,22.90
2023-04-16T22:09:21.412Z,20.88
2023-04-16T22:11:54.329Z,22.45
2023-04-16T22:14:29.394Z,21.08
2023-04-16T22:17:03.458Z,23.52
2023-04-16T22:19:37.154Z,24.77
2023-04-16T22:22:09.979Z,23.73
2023-04-16T22:24:43.623Z,21.10
2023-04-16T22:27:16.821Z,21.05
2023-04-16T22:29:51.131Z,23.83
2023-04-16T22:32:24.582Z,23.60
2023-04-16T22:34:57.555Z,21.42
2023-04-16T22:37:30.463Z,21.27
2023-04-16T22:40:06.972Z,18.67
2023-04-16T22:42:39.832Z,21.15
2023-04-16T22:45:14.298Z,21.20
2023-04-16T22:47:47.140Z,20.40
2023-04-16T22:50:20.667Z,21.80
2023-04-16T22:52:53.462Z,21.48
2023-04-16T22:55:26.311Z,23.83
2023-04-16T22:57:59.206Z,21.05
2023-04-16T23:00:34.197Z,21.25
2023-04-16T23:03:07.300Z,20.42
2023-04-16T23:05:40.494Z,23.85
2023-04-16T23:08:13.554Z,20.70
2023-04-16T23:10:46.510Z,23.00
2023-04-16T23:13:19.343Z,23.63
2023-04-16T23:15:53.469Z,22.48
2023-04-16T23:18:26.336Z,20.58
2023-04-16T23:20:59.184Z,24.45
2023-04-16T23:23:32.002Z,21.58
2023-04-16T23:26:05.332Z,21.17
2023-04-16T23:28:38.129Z,25.85
2023-04-16T23:31:12.745Z,20.63
2023-04-16T23:33:45.812Z,23.00
2023-04-16T23:36:18.689Z,23.52
2023-04-16T23:38:51.474Z,23.00
2023-04-16T23:41:24.351Z,25.20
2023-04-16T23:43:57.846Z,21.27
2023-04-16T23:46:32.102Z,27.50
2023-04-16T23:49:05.690Z,23.90
2023-04-16T23:51:38.470Z,26.23
2023-04-16T23:54:11.258Z,23.77
2023-04-16T23:56:44.102Z,24.10
2023-04-16T23:59:16.922Z,23.92
